sensor_id;sensor_type;location;lat;lon;timestamp;P1;durP1;ratioP1;P2;durP2;ratioP2
41139;SDS011;26881;48.784;9.192;2022-09-30T00:00:33;9.68;;;4.32;;
41139;SDS011;26881;48.784;9.192;2022-09-30T00:05:56;7.93;;;4.53;;
41139;SDS011;26881;48.784;9.192;2022-09-30T00:11:20;6.25;;;5.05;;
41139;SDS011;26881;48.784;9.192;2022-09-30T00:16:45;8.98;;;4.32;;
41139;SDS011;26881;48.784;9.192;2022-09-30T00:22:07;6.18;;;4.40;;
41139;SDS011;26881;48.784;9.192;2022-09-30T00:27:29;8.38;;;4.43;;
41139;SDS011;26881;48.784;9.192;2022-09-30T00:32:51;9.27;;;4.88;;
41139;SDS011;26881;48.784;9.192;2022-09-30T00:38:12;7.38;;;4.32;;
41139;SDS011;26881;48.784;9.192;2022-09-30T00:43:39;8.77;;;5.32;;
41139;SDS011;26881;48.784;9.192;2022-09-30T00:49:10;6.93;;;5.00;;
41139;SDS011;26881;48.784;9.192;2022-09-30T00:54:39;9.95;;;5.15;;
41139;SDS011;26881;48.784;9.192;2022-09-30T01:00:01;7.93;;;4.70;;
41139;SDS011;26881;48.784;9.192;2022-09-30T01:05:24;7.88;;;4.68;;
41139;SDS011;26881;48.784;9.192;2022-09-30T01:10:46;6.65;;;4.32;;
41139;SDS011;26881;48.784;9.192;2022-09-30T01:27:40;8.40;;;4.53;;
41139;SDS011;26881;48.784;9.192;2022-09-30T01:44:29;9.85;;;5.20;;
41139;SDS011;26881;48.784;9.192;2022-09-30T01:50:00;9.10;;;5.57;;
41139;SDS011;26881;48.784;9.192;2022-09-30T01:55:37;7.68;;;5.60;;
41139;SDS011;26881;48.784;9.192;2022-09-30T02:01:09;10.07;;;5.13;;
41139;SDS011;26881;48.784;9.192;2022-09-30T02:06:40;12.70;;;6.20;;
41139;SDS011;26881;48.784;9.192;2022-09-30T02:12:06;12.05;;;5.60;;
41139;SDS011;26881;48.784;9.192;2022-09-30T02:17:38;9.40;;;5.82;;
41139;SDS011;26881;48.784;9.192;2022-09-30T02:23:15;11.18;;;5.93;;
41139;SDS011;26881;48.784;9.192;2022-09-30T02:28:43;12.70;;;5.85;;
41139;SDS011;26881;48.784;9.192;2022-09-30T02:34:14;16.57;;;7.00;;
41139;SDS011;26881;48.784;9.192;2022-09-30T02:39:53;12.65;;;7.70;;
41139;SDS011;26881;48.784;9.192;2022-09-30T02:45:23;20.90;;;7.68;;
41139;SDS011;26881;48.784;9.192;2022-09-30T02:50:46;12.55;;;7.25;;
41139;SDS011;26881;48.784;9.192;2022-09-30T02:56:58;14.02;;;7.10;;
41139;SDS011;26881;48.784;9.192;2022-09-30T03:02:04;13.63;;;7.25;;
41139;SDS011;26881;48.784;9.192;2022-09-30T03:07:26;17.23;;;7.22;;
41139;SDS011;26881;48.784;9.192;2022-09-30T03:30:22;12.10;;;6.75;;
41139;SDS011;26881;48.784;9.192;2022-09-30T03:41:52;11.50;;;6.60;;
41139;SDS011;26881;48.784;9.192;2022-09-30T03:47:23;12.23;;;6.73;;
41139;SDS011;26881;48.784;9.192;2022-09-30T03:52:48;10.83;;;6.57;;
41139;SDS011;26881;48.784;9.192;2022-09-30T03:58:11;11.45;;;7.25;;
41139;SDS011;26881;48.784;9.192;2022-09-30T04:03:33;12.55;;;7.30;;
41139;SDS011;26881;48.784;9.192;2022-09-30T04:08:55;15.63;;;8.20;;
41139;SDS011;26881;48.784;9.192;2022-09-30T04:14:18;13.35;;;7.97;;
41139;SDS011;26881;48.784;9.192;2022-09-30T04:19:39;15.37;;;8.27;;
41139;SDS011;26881;48.784;9.192;2022-09-30T04:25:01;12.90;;;8.30;;
41139;SDS011;26881;48.784;9.192;2022-09-30T04:30:23;13.50;;;9.10;;
41139;SDS011;26881;48.784;9.192;2022-09-30T04:35:52;15.03;;;8.70;;
41139;SDS011;26881;48.784;9.192;2022-09-30T04:41:15;12.52;;;8.32;;
41139;SDS011;26881;48.784;9.192;2022-09-30T04:46:38;11.67;;;8.90;;
41139;SDS011;26881;48.784;9.192;2022-09-30T04:52:00;12.30;;;8.93;;
41139;SDS011;26881;48.784;9.192;2022-09-30T04:57:22;15.93;;;8.90;;
41139;SDS011;26881;48.784;9.192;2022-09-30T05:02:43;13.77;;;9.40;;
41139;SDS011;26881;48.784;9.192;2022-09-30T05:08:05;15.00;;;9.30;;
41139;SDS011;26881;48.784;9.192;2022-09-30T05:13:33;19.70;;;9.07;;
41139;SDS011;26881;48.784;9.192;2022-09-30T05:18:56;13.90;;;8.75;;
41139;SDS011;26881;48.784;9.192;2022-09-30T05:24:18;14.40;;;8.40;;
41139;SDS011;26881;48.784;9.192;2022-09-30T05:29:40;12.30;;;8.55;;
41139;SDS011;26881;48.784;9.192;2022-09-30T05:35:02;14.77;;;8.18;;
41139;SDS011;26881;48.784;9.192;2022-09-30T05:40:24;16.30;;;8.23;;
41139;SDS011;26881;48.784;9.192;2022-09-30T05:45:53;13.03;;;8.30;;
41139;SDS011;26881;48.784;9.192;2022-09-30T05:51:16;12.53;;;9.20;;
41139;SDS011;26881;48.784;9.192;2022-09-30T05:56:38;13.23;;;8.35;;
41139;SDS011;26881;48.784;9.192;2022-09-30T06:02:00;14.30;;;9.17;;
41139;SDS011;26881;48.784;9.192;2022-09-30T06:07:22;16.20;;;10.10;;
41139;SDS011;26881;48.784;9.192;2022-09-30T06:12:44;17.00;;;10.50;;
41139;SDS011;26881;48.784;9.192;2022-09-30T06:18:06;16.87;;;11.03;;
41139;SDS011;26881;48.784;9.192;2022-09-30T06:23:29;15.93;;;11.52;;
41139;SDS011;26881;48.784;9.192;2022-09-30T06:28:52;14.20;;;11.57;;
41139;SDS011;26881;48.784;9.192;2022-09-30T06:34:14;18.85;;;11.65;;
41139;SDS011;26881;48.784;9.192;2022-09-30T06:39:35;18.53;;;12.43;;
41139;SDS011;26881;48.784;9.192;2022-09-30T06:44:57;19.20;;;12.40;;
41139;SDS011;26881;48.784;9.192;2022-09-30T06:50:19;16.00;;;12.57;;
41139;SDS011;26881;48.784;9.192;2022-09-30T06:55:46;16.38;;;12.50;;
41139;SDS011;26881;48.784;9.192;2022-09-30T07:01:08;19.00;;;14.07;;
41139;SDS011;26881;48.784;9.192;2022-09-30T07:06:30;22.77;;;13.67;;
41139;SDS011;26881;48.784;9.192;2022-09-30T07:11:51;16.53;;;13.80;;
41139;SDS011;26881;48.784;9.192;2022-09-30T07:17:13;25.20;;;14.70;;
41139;SDS011;26881;48.784;9.192;2022-09-30T07:22:35;22.67;;;14.77;;
41139;SDS011;26881;48.784;9.192;2022-09-30T07:27:56;17.67;;;13.88;;
41139;SDS011;26881;48.784;9.192;2022-09-30T07:33:18;17.45;;;14.02;;
41139;SDS011;26881;48.784;9.192;2022-09-30T07:38:40;21.77;;;16.08;;
41139;SDS011;26881;48.784;9.192;2022-09-30T07:44:03;19.25;;;15.10;;
41139;SDS011;26881;48.784;9.192;2022-09-30T07:49:27;21.60;;;16.38;;
41139;SDS011;26881;48.784;9.192;2022-09-30T07:54:48;19.80;;;15.20;;
41139;SDS011;26881;48.784;9.192;2022-09-30T08:00:11;19.33;;;14.70;;
41139;SDS011;26881;48.784;9.192;2022-09-30T08:05:53;16.30;;;14.15;;
41139;SDS011;26881;48.784;9.192;2022-09-30T08:11:15;25.95;;;15.07;;
41139;SDS011;26881;48.784;9.192;2022-09-30T08:16:37;17.25;;;14.05;;
41139;SDS011;26881;48.784;9.192;2022-09-30T08:21:58;17.05;;;14.00;;
41139;SDS011;26881;48.784;9.192;2022-09-30T08:27:20;18.52;;;15.02;;
41139;SDS011;26881;48.784;9.192;2022-09-30T08:32:42;18.05;;;14.15;;
41139;SDS011;26881;48.784;9.192;2022-09-30T08:38:04;18.52;;;14.07;;
41139;SDS011;26881;48.784;9.192;2022-09-30T08:43:28;16.77;;;14.80;;
41139;SDS011;26881;48.784;9.192;2022-09-30T08:49:18;21.98;;;15.90;;
41139;SDS011;26881;48.784;9.192;2022-09-30T08:54:54;18.73;;;15.33;;
41139;SDS011;26881;48.784;9.192;2022-09-30T09:00:18;20.02;;;14.48;;
41139;SDS011;26881;48.784;9.192;2022-09-30T09:23:36;31.75;;;16.63;;
41139;SDS011;26881;48.784;9.192;2022-09-30T09:34:39;21.65;;;15.98;;
41139;SDS011;26881;48.784;9.192;2022-09-30T09:45:37;22.83;;;15.30;;
41139;SDS011;26881;48.784;9.192;2022-09-30T09:51:12;26.00;;;15.18;;
41139;SDS011;26881;48.784;9.192;2022-09-30T09:56:53;17.63;;;13.88;;
41139;SDS011;26881;48.784;9.192;2022-09-30T10:02:22;15.57;;;13.88;;
41139;SDS011;26881;48.784;9.192;2022-09-30T10:08:06;17.38;;;13.48;;
41139;SDS011;26881;48.784;9.192;2022-09-30T10:18:58;13.20;;;10.48;;
41139;SDS011;26881;48.784;9.192;2022-09-30T10:24:27;11.95;;;9.10;;
41139;SDS011;26881;48.784;9.192;2022-09-30T10:29:50;10.43;;;8.57;;
41139;SDS011;26881;48.784;9.192;2022-09-30T10:35:16;13.25;;;8.60;;
41139;SDS011;26881;48.784;9.192;2022-09-30T10:40:46;11.93;;;7.75;;
41139;SDS011;26881;48.784;9.192;2022-09-30T10:46:11;10.40;;;6.80;;
41139;SDS011;26881;48.784;9.192;2022-09-30T10:51:48;12.13;;;7.93;;
41139;SDS011;26881;48.784;9.192;2022-09-30T10:57:14;9.50;;;6.88;;
41139;SDS011;26881;48.784;9.192;2022-09-30T11:13:49;7.50;;;4.40;;
41139;SDS011;26881;48.784;9.192;2022-09-30T11:19:36;4.55;;;3.92;;
41139;SDS011;26881;48.784;9.192;2022-09-30T11:25:16;6.28;;;3.95;;
41139;SDS011;26881;48.784;9.192;2022-09-30T11:30:52;8.02;;;5.32;;
41139;SDS011;26881;48.784;9.192;2022-09-30T11:36:30;7.57;;;4.57;;
41139;SDS011;26881;48.784;9.192;2022-09-30T11:42:06;5.05;;;3.17;;
41139;SDS011;26881;48.784;9.192;2022-09-30T11:59:21;4.70;;;3.30;;
41139;SDS011;26881;48.784;9.192;2022-09-30T12:04:56;5.38;;;3.33;;
41139;SDS011;26881;48.784;9.192;2022-09-30T12:16:18;5.95;;;3.15;;
41139;SDS011;26881;48.784;9.192;2022-09-30T12:50:05;7.80;;;2.53;;
41139;SDS011;26881;48.784;9.192;2022-09-30T12:55:30;2.22;;;2.03;;
41139;SDS011;26881;48.784;9.192;2022-09-30T13:01:02;3.58;;;2.10;;
41139;SDS011;26881;48.784;9.192;2022-09-30T13:06:28;5.82;;;2.03;;
41139;SDS011;26881;48.784;9.192;2022-09-30T13:12:15;3.65;;;1.52;;
41139;SDS011;26881;48.784;9.192;2022-09-30T13:17:44;2.42;;;1.45;;
41139;SDS011;26881;48.784;9.192;2022-09-30T13:23:06;2.58;;;1.40;;
41139;SDS011;26881;48.784;9.192;2022-09-30T13:34:27;4.60;;;2.15;;
41139;SDS011;26881;48.784;9.192;2022-09-30T13:39:53;2.42;;;1.40;;
41139;SDS011;26881;48.784;9.192;2022-09-30T13:45:18;2.30;;;1.23;;
41139;SDS011;26881;48.784;9.192;2022-09-30T13:50:47;1.67;;;1.35;;
41139;SDS011;26881;48.784;9.192;2022-09-30T13:56:21;1.75;;;0.85;;
41139;SDS011;26881;48.784;9.192;2022-09-30T14:01:49;1.52;;;1.02;;
41139;SDS011;26881;48.784;9.192;2022-09-30T14:24:13;3.03;;;1.92;;
41139;SDS011;26881;48.784;9.192;2022-09-30T14:35:27;3.13;;;1.85;;
41139;SDS011;26881;48.784;9.192;2022-09-30T14:40:52;4.15;;;1.77;;
41139;SDS011;26881;48.784;9.192;2022-09-30T14:46:28;5.05;;;1.85;;
41139;SDS011;26881;48.784;9.192;2022-09-30T14:52:02;3.60;;;1.80;;
41139;SDS011;26881;48.784;9.192;2022-09-30T14:57:25;5.78;;;1.90;;
41139;SDS011;26881;48.784;9.192;2022-09-30T15:02:48;2.38;;;1.77;;
41139;SDS011;26881;48.784;9.192;2022-09-30T15:08:11;5.55;;;2.10;;
41139;SDS011;26881;48.784;9.192;2022-09-30T15:13:37;5.43;;;2.67;;
41139;SDS011;26881;48.784;9.192;2022-09-30T15:19:00;3.00;;;2.20;;
41139;SDS011;26881;48.784;9.192;2022-09-30T15:24:23;5.60;;;2.78;;
41139;SDS011;26881;48.784;9.192;2022-09-30T15:29:56;4.13;;;2.10;;
41139;SDS011;26881;48.784;9.192;2022-09-30T15:35:22;3.15;;;2.28;;
41139;SDS011;26881;48.784;9.192;2022-09-30T15:40:44;3.03;;;2.00;;
41139;SDS011;26881;48.784;9.192;2022-09-30T15:46:29;3.15;;;2.08;;
41139;SDS011;26881;48.784;9.192;2022-09-30T15:51:54;8.18;;;2.40;;
41139;SDS011;26881;48.784;9.192;2022-09-30T15:57:44;3.83;;;2.20;;
41139;SDS011;26881;48.784;9.192;2022-09-30T16:08:40;3.08;;;2.05;;
41139;SDS011;26881;48.784;9.192;2022-09-30T16:14:18;2.95;;;1.70;;
41139;SDS011;26881;48.784;9.192;2022-09-30T16:19:48;2.92;;;2.17;;
41139;SDS011;26881;48.784;9.192;2022-09-30T16:30:46;7.97;;;2.35;;
41139;SDS011;26881;48.784;9.192;2022-09-30T16:36:10;3.38;;;1.88;;
41139;SDS011;26881;48.784;9.192;2022-09-30T16:41:33;4.90;;;2.22;;
41139;SDS011;26881;48.784;9.192;2022-09-30T16:46:55;3.88;;;2.35;;
41139;SDS011;26881;48.784;9.192;2022-09-30T16:52:16;7.68;;;4.57;;
41139;SDS011;26881;48.784;9.192;2022-09-30T16:57:38;4.40;;;2.90;;
41139;SDS011;26881;48.784;9.192;2022-09-30T17:03:01;4.00;;;2.47;;
41139;SDS011;26881;48.784;9.192;2022-09-30T17:08:22;4.75;;;2.30;;
41139;SDS011;26881;48.784;9.192;2022-09-30T17:13:44;6.65;;;2.65;;
41139;SDS011;26881;48.784;9.192;2022-09-30T17:19:07;5.25;;;3.58;;
41139;SDS011;26881;48.784;9.192;2022-09-30T17:24:29;6.40;;;3.80;;
41139;SDS011;26881;48.784;9.192;2022-09-30T17:29:52;6.78;;;3.78;;
41139;SDS011;26881;48.784;9.192;2022-09-30T17:35:13;4.43;;;3.63;;
41139;SDS011;26881;48.784;9.192;2022-09-30T17:40:35;10.13;;;3.47;;
41139;SDS011;26881;48.784;9.192;2022-09-30T17:46:17;6.30;;;3.75;;
41139;SDS011;26881;48.784;9.192;2022-09-30T17:51:42;6.93;;;3.42;;
41139;SDS011;26881;48.784;9.192;2022-09-30T17:57:04;6.97;;;3.85;;
41139;SDS011;26881;48.784;9.192;2022-09-30T18:02:27;10.30;;;3.20;;
41139;SDS011;26881;48.784;9.192;2022-09-30T18:07:50;7.90;;;3.42;;
41139;SDS011;26881;48.784;9.192;2022-09-30T18:13:12;6.18;;;3.47;;
41139;SDS011;26881;48.784;9.192;2022-09-30T18:18:34;5.97;;;3.60;;
41139;SDS011;26881;48.784;9.192;2022-09-30T18:23:56;7.72;;;4.30;;
41139;SDS011;26881;48.784;9.192;2022-09-30T18:29:18;7.68;;;4.47;;
41139;SDS011;26881;48.784;9.192;2022-09-30T18:34:44;8.40;;;4.47;;
41139;SDS011;26881;48.784;9.192;2022-09-30T18:40:06;9.43;;;4.95;;
41139;SDS011;26881;48.784;9.192;2022-09-30T18:45:29;8.20;;;4.78;;
41139;SDS011;26881;48.784;9.192;2022-09-30T18:50:52;8.82;;;4.45;;
41139;SDS011;26881;48.784;9.192;2022-09-30T18:56:14;9.25;;;5.00;;
41139;SDS011;26881;48.784;9.192;2022-09-30T19:01:36;7.82;;;4.63;;
41139;SDS011;26881;48.784;9.192;2022-09-30T19:06:59;9.33;;;5.43;;
41139;SDS011;26881;48.784;9.192;2022-09-30T19:12:21;11.82;;;4.97;;
41139;SDS011;26881;48.784;9.192;2022-09-30T19:17:43;5.65;;;4.40;;
41139;SDS011;26881;48.784;9.192;2022-09-30T19:23:05;7.57;;;4.55;;
41139;SDS011;26881;48.784;9.192;2022-09-30T19:28:28;6.47;;;4.82;;
41139;SDS011;26881;48.784;9.192;2022-09-30T19:33:58;12.93;;;5.93;;
41139;SDS011;26881;48.784;9.192;2022-09-30T19:39:21;10.48;;;5.75;;
41139;SDS011;26881;48.784;9.192;2022-09-30T19:44:44;11.05;;;5.53;;
41139;SDS011;26881;48.784;9.192;2022-09-30T19:50:05;10.45;;;5.10;;
41139;SDS011;26881;48.784;9.192;2022-09-30T19:55:27;11.57;;;5.43;;
41139;SDS011;26881;48.784;9.192;2022-09-30T20:00:52;9.45;;;5.15;;
41139;SDS011;26881;48.784;9.192;2022-09-30T20:06:15;8.13;;;6.10;;
41139;SDS011;26881;48.784;9.192;2022-09-30T20:11:38;14.02;;;5.57;;
41139;SDS011;26881;48.784;9.192;2022-09-30T20:17:01;8.77;;;5.25;;
41139;SDS011;26881;48.784;9.192;2022-09-30T20:22:22;7.85;;;5.80;;
41139;SDS011;26881;48.784;9.192;2022-09-30T20:27:49;12.23;;;6.68;;
41139;SDS011;26881;48.784;9.192;2022-09-30T20:33:14;10.47;;;5.83;;
41139;SDS011;26881;48.784;9.192;2022-09-30T20:38:37;11.23;;;5.85;;
41139;SDS011;26881;48.784;9.192;2022-09-30T20:44:07;8.95;;;6.13;;
41139;SDS011;26881;48.784;9.192;2022-09-30T20:49:32;11.57;;;5.95;;
41139;SDS011;26881;48.784;9.192;2022-09-30T20:54:54;11.23;;;6.22;;
41139;SDS011;26881;48.784;9.192;2022-09-30T21:00:19;10.23;;;5.57;;
41139;SDS011;26881;48.784;9.192;2022-09-30T21:05:49;15.48;;;7.60;;
41139;SDS011;26881;48.784;9.192;2022-09-30T21:11:13;11.85;;;7.20;;
41139;SDS011;26881;48.784;9.192;2022-09-30T21:16:35;10.45;;;6.32;;
41139;SDS011;26881;48.784;9.192;2022-09-30T21:21:57;8.27;;;5.70;;
41139;SDS011;26881;48.784;9.192;2022-09-30T21:27:18;7.38;;;5.20;;
41139;SDS011;26881;48.784;9.192;2022-09-30T21:32:41;10.83;;;5.40;;
41139;SDS011;26881;48.784;9.192;2022-09-30T21:38:04;8.73;;;5.10;;
41139;SDS011;26881;48.784;9.192;2022-09-30T21:43:32;5.82;;;5.22;;
41139;SDS011;26881;48.784;9.192;2022-09-30T21:49:13;7.72;;;5.07;;
41139;SDS011;26881;48.784;9.192;2022-09-30T21:54:39;9.93;;;5.63;;
41139;SDS011;26881;48.784;9.192;2022-09-30T22:00:01;9.70;;;5.82;;
41139;SDS011;26881;48.784;9.192;2022-09-30T22:05:22;9.38;;;6.40;;
41139;SDS011;26881;48.784;9.192;2022-09-30T22:10:44;11.38;;;6.47;;
41139;SDS011;26881;48.784;9.192;2022-09-30T22:16:06;8.98;;;5.72;;
41139;SDS011;26881;48.784;9.192;2022-09-30T22:21:29;8.40;;;5.60;;
41139;SDS011;26881;48.784;9.192;2022-09-30T22:26:53;9.95;;;5.50;;
41139;SDS011;26881;48.784;9.192;2022-09-30T22:32:15;10.65;;;5.95;;
41139;SDS011;26881;48.784;9.192;2022-09-30T22:37:37;9.13;;;5.60;;
41139;SDS011;26881;48.784;9.192;2022-09-30T22:43:27;9.38;;;5.93;;
41139;SDS011;26881;48.784;9.192;2022-09-30T22:48:49;11.75;;;6.40;;
41139;SDS011;26881;48.784;9.192;2022-09-30T22:54:13;10.90;;;5.45;;
41139;SDS011;26881;48.784;9.192;2022-09-30T22:59:34;9.05;;;5.20;;
41139;SDS011;26881;48.784;9.192;2022-09-30T23:04:56;9.25;;;5.70;;
41139;SDS011;26881;48.784;9.192;2022-09-30T23:10:19;6.35;;;4.70;;
41139;SDS011;26881;48.784;9.192;2022-09-30T23:15:41;10.60;;;6.72;;
41139;SDS011;26881;48.784;9.192;2022-09-30T23:21:03;9.48;;;6.75;;
41139;SDS011;26881;48.784;9.192;2022-09-30T23:26:33;4.97;;;4.25;;
41139;SDS011;26881;48.784;9.192;2022-09-30T23:31:55;6.95;;;4.40;;
41139;SDS011;26881;48.784;9.192;2022-09-30T23:37:17;6.75;;;4.63;;
41139;SDS011;26881;48.784;9.192;2022-09-30T23:42:39;5.47;;;4.28;;
41139;SDS011;26881;48.784;9.192;2022-09-30T23:48:01;6.75;;;5.05;;
41139;SDS011;26881;48.784;9.192;2022-09-30T23:53:23;9.27;;;4.70;;
41139;SDS011;26881;48.784;9.192;2022-09-30T23:58:45;8.70;;;4.90;;
